createdAt,value
2018-04-27T00:00:54.145Z,0.00
2018-04-27T00:01:54.139Z,0.00
2018-04-27T00:02:54.133Z,0.00
2018-04-27T00:03:54.126Z,0.00
2018-04-27T00:04:54.119Z,0.00
2018-04-27T00:05:54.113Z,0.00
2018-04-27T00:06:54.107Z,0.00
2018-04-27T00:07:54.099Z,0.00
2018-04-27T00:08:54.103Z,0.00
2018-04-27T00:09:54.096Z,0.00
2018-04-27T00:10:54.081Z,0.00
2018-04-27T00:11:54.080Z,0.00
2018-04-27T00:12:54.072Z,0.00
2018-04-27T00:13:54.066Z,0.00
2018-04-27T00:14:54.055Z,0.00
2018-04-27T00:15:54.049Z,0.00
2018-04-27T00:16:54.043Z,0.00
2018-04-27T00:17:54.035Z,0.00
2018-04-27T00:18:54.029Z,0.00
2018-04-27T00:19:54.022Z,0.00
2018-04-27T00:20:54.015Z,0.00
2018-04-27T00:21:54.008Z,0.00
2018-04-27T00:22:54.007Z,0.00
2018-04-27T00:23:54.000Z,0.00
2018-04-27T00:24:53.988Z,0.00
2018-04-27T00:25:53.981Z,0.00
2018-04-27T00:26:53.980Z,0.00
2018-04-27T00:27:53.973Z,0.00
2018-04-27T00:28:53.960Z,0.00
2018-04-27T00:29:53.955Z,0.00
2018-04-27T00:30:53.948Z,0.00
2018-04-27T00:31:53.942Z,0.00
2018-04-27T00:32:53.936Z,0.00
2018-04-27T00:33:53.928Z,0.00
2018-04-27T00:34:53.926Z,0.00
2018-04-27T00:35:53.919Z,0.00
2018-04-27T00:36:53.908Z,0.00
2018-04-27T00:37:53.901Z,0.00
2018-04-27T00:38:53.895Z,0.00
2018-04-27T00:39:53.888Z,0.00
2018-04-27T00:40:53.881Z,0.00
2018-04-27T00:41:53.874Z,0.00
2018-04-27T00:42:53.869Z,0.00
2018-04-27T00:43:53.861Z,0.00
2018-04-27T00:44:53.854Z,0.00
2018-04-27T00:45:53.848Z,0.00
2018-04-27T00:46:53.845Z,0.00
2018-04-27T00:47:53.839Z,0.00
2018-04-27T00:48:53.879Z,0.00
2018-04-27T00:49:53.820Z,0.00
2018-04-27T00:50:53.814Z,0.00
2018-04-27T00:51:53.806Z,0.00
2018-04-27T00:52:53.803Z,0.00
2018-04-27T00:53:53.797Z,0.00
2018-04-27T00:54:53.786Z,0.00
2018-04-27T00:55:53.779Z,0.00
2018-04-27T00:56:53.772Z,0.00
2018-04-27T00:57:53.764Z,0.00
2018-04-27T00:58:53.759Z,0.00
2018-04-27T00:59:53.752Z,0.00
2018-04-27T01:00:53.745Z,0.00
2018-04-27T01:01:53.737Z,0.00
2018-04-27T01:02:53.731Z,0.00
2018-04-27T01:03:53.723Z,0.00
2018-04-27T01:04:53.721Z,0.00
2018-04-27T01:05:53.715Z,0.00
2018-04-27T01:06:53.708Z,0.00
2018-04-27T01:07:53.701Z,0.00
2018-04-27T01:08:53.689Z,0.00
2018-04-27T01:09:53.683Z,0.00
2018-04-27T01:10:53.676Z,0.00
2018-04-27T01:11:53.670Z,0.00
2018-04-27T01:12:53.662Z,0.00
2018-04-27T01:13:53.656Z,0.00
2018-04-27T01:14:53.648Z,0.00
2018-04-27T01:15:53.641Z,0.00
2018-04-27T01:16:53.634Z,0.00
2018-04-27T01:17:53.627Z,0.00
2018-04-27T01:18:53.625Z,0.00
2018-04-27T01:19:53.618Z,0.00
2018-04-27T01:20:53.606Z,0.00
2018-04-27T01:21:53.600Z,0.00
2018-04-27T01:22:53.592Z,0.00
2018-04-27T01:23:53.586Z,0.00
2018-04-27T01:24:53.582Z,0.00
2018-04-27T01:25:53.575Z,0.00
2018-04-27T01:26:53.564Z,0.00
2018-04-27T01:27:53.557Z,0.00
2018-04-27T01:28:53.549Z,0.00
2018-04-27T01:29:53.542Z,0.00
2018-04-27T01:30:53.535Z,0.00
2018-04-27T01:31:53.528Z,0.00
2018-04-27T01:32:53.520Z,0.00
2018-04-27T01:33:53.513Z,0.00
2018-04-27T01:34:53.507Z,0.00
2018-04-27T01:35:53.500Z,0.00
2018-04-27T01:36:53.494Z,0.00
2018-04-27T01:37:53.489Z,0.00
2018-04-27T01:38:53.476Z,0.00
2018-04-27T01:39:53.471Z,0.00
2018-04-27T01:40:53.465Z,0.00
2018-04-27T01:41:53.465Z,0.00
2018-04-27T01:42:53.450Z,0.00
2018-04-27T01:43:53.442Z,0.00
2018-04-27T01:44:53.438Z,0.00
2018-04-27T01:45:53.431Z,0.00
2018-04-27T01:46:53.420Z,0.00
2018-04-27T01:47:53.413Z,0.00
2018-04-27T01:48:53.410Z,0.00
2018-04-27T01:49:53.403Z,0.00
2018-04-27T01:50:53.392Z,0.00
2018-04-27T01:51:53.385Z,0.00
2018-04-27T01:52:53.377Z,0.00
2018-04-27T01:53:53.370Z,0.00
2018-04-27T01:54:53.364Z,0.00
2018-04-27T01:55:53.356Z,0.00
2018-04-27T01:56:53.352Z,0.00
2018-04-27T01:57:53.342Z,0.00
2018-04-27T01:58:53.339Z,0.00
2018-04-27T01:59:53.331Z,0.00
2018-04-27T02:00:53.319Z,0.00
2018-04-27T02:01:53.312Z,0.00
2018-04-27T02:02:53.308Z,0.00
2018-04-27T02:03:53.301Z,0.00
2018-04-27T02:04:53.290Z,0.00
2018-04-27T02:05:53.282Z,0.00
2018-04-27T02:06:53.276Z,0.00
2018-04-27T02:07:53.272Z,0.00
2018-04-27T02:08:53.261Z,0.00
2018-04-27T02:09:53.253Z,0.00
2018-04-27T02:10:53.246Z,0.00
2018-04-27T02:11:53.240Z,0.00
2018-04-27T02:12:53.223Z,0.00
2018-04-27T02:13:53.214Z,0.00
2018-04-27T02:14:53.207Z,0.00
2018-04-27T02:15:53.205Z,0.00
2018-04-27T02:16:53.197Z,0.00
2018-04-27T02:17:53.209Z,0.00
2018-04-27T02:18:53.178Z,0.00
2018-04-27T02:19:53.172Z,0.00
2018-04-27T02:20:53.242Z,0.00
2018-04-27T02:21:53.161Z,0.00
2018-04-27T02:22:53.151Z,0.00
2018-04-27T02:23:53.154Z,0.00
2018-04-27T02:24:53.134Z,0.00
2018-04-27T02:25:53.128Z,0.00
2018-04-27T02:26:53.122Z,0.00
2018-04-27T02:27:53.113Z,0.00
2018-04-27T02:28:53.106Z,0.00
2018-04-27T02:29:53.099Z,0.00
2018-04-27T02:30:53.097Z,0.00
2018-04-27T02:31:53.089Z,0.00
2018-04-27T02:32:53.077Z,0.00
2018-04-27T02:33:53.070Z,0.00
2018-04-27T02:34:53.066Z,0.00
2018-04-27T02:35:53.059Z,0.00
2018-04-27T02:36:53.048Z,0.00
2018-04-27T02:37:53.041Z,0.00
2018-04-27T02:38:53.033Z,0.00
2018-04-27T02:39:53.026Z,0.00
2018-04-27T02:40:53.017Z,0.00
2018-04-27T02:41:53.010Z,0.00
2018-04-27T02:42:53.007Z,0.00
2018-04-27T02:43:53.000Z,0.00
2018-04-27T02:44:52.992Z,0.00
2018-04-27T02:45:52.986Z,0.00
2018-04-27T02:46:52.976Z,0.00
2018-04-27T02:47:52.967Z,0.00
2018-04-27T02:48:52.959Z,0.00
2018-04-27T02:49:52.954Z,0.00
2018-04-27T02:50:52.950Z,0.00
2018-04-27T02:51:52.944Z,0.00
2018-04-27T02:52:52.940Z,0.00
2018-04-27T02:53:52.932Z,0.00
2018-04-27T02:54:52.922Z,0.00
2018-04-27T02:55:52.916Z,0.00
2018-04-27T02:56:52.903Z,0.00
2018-04-27T02:57:52.912Z,0.00
2018-04-27T02:58:52.891Z,0.00
2018-04-27T02:59:52.884Z,0.00
2018-04-27T03:00:52.880Z,0.00
2018-04-27T03:01:52.873Z,0.00
2018-04-27T03:02:52.862Z,0.00
2018-04-27T03:03:52.858Z,0.00
2018-04-27T03:04:52.848Z,0.00
2018-04-27T03:05:52.842Z,0.00
2018-04-27T03:06:52.834Z,0.00
2018-04-27T03:07:52.828Z,0.00
2018-04-27T03:08:52.821Z,0.00
2018-04-27T03:09:52.816Z,0.00
2018-04-27T03:10:52.806Z,0.00
2018-04-27T03:11:52.799Z,0.00
2018-04-27T03:12:52.800Z,0.00
2018-04-27T03:13:52.791Z,0.00
2018-04-27T03:14:52.782Z,0.00
2018-04-27T03:15:52.776Z,0.00
2018-04-27T03:16:52.764Z,0.00
2018-04-27T03:17:52.757Z,0.00
2018-04-27T03:18:52.751Z,0.00
2018-04-27T03:19:52.744Z,0.00
2018-04-27T03:20:52.737Z,0.00
2018-04-27T03:21:52.730Z,0.00
2018-04-27T03:22:52.723Z,0.00
2018-04-27T03:23:52.750Z,0.00
2018-04-27T03:24:52.709Z,0.00
2018-04-27T03:25:52.702Z,0.00
2018-04-27T03:26:52.699Z,0.00
2018-04-27T03:27:52.693Z,0.00
2018-04-27T03:28:52.681Z,4.00
2018-04-27T03:29:52.679Z,4.00
2018-04-27T03:30:52.672Z,4.00
2018-04-27T03:31:52.661Z,4.00
2018-04-27T03:32:52.658Z,4.00
2018-04-27T03:33:52.650Z,4.00
2018-04-27T03:34:52.640Z,4.00
2018-04-27T03:35:52.633Z,4.00
2018-04-27T03:36:52.627Z,4.00
2018-04-27T03:37:52.617Z,4.00
2018-04-27T03:38:52.610Z,0.00
2018-04-27T03:39:52.607Z,4.00
2018-04-27T03:40:52.596Z,4.00
2018-04-27T03:41:52.589Z,4.00
2018-04-27T03:42:52.586Z,4.00
2018-04-27T03:43:52.575Z,4.00
2018-04-27T03:44:52.571Z,4.00
2018-04-27T03:45:52.564Z,8.00
2018-04-27T03:46:52.553Z,4.00
2018-04-27T03:47:52.545Z,8.00
2018-04-27T03:48:52.538Z,8.00
2018-04-27T03:49:52.533Z,12.00
2018-04-27T03:50:52.522Z,12.00
2018-04-27T03:51:52.528Z,16.00
2018-04-27T03:52:52.513Z,16.00
2018-04-27T03:53:52.505Z,16.00
2018-04-27T03:54:52.494Z,20.00
2018-04-27T03:55:52.487Z,20.00
2018-04-27T03:56:52.483Z,28.00
2018-04-27T03:57:52.476Z,32.00
2018-04-27T03:58:52.465Z,32.00
2018-04-27T03:59:52.457Z,40.00
2018-04-27T04:00:52.452Z,44.00
2018-04-27T04:01:52.442Z,48.00
2018-04-27T04:02:52.435Z,56.00
2018-04-27T04:03:52.428Z,64.00
2018-04-27T04:04:52.419Z,68.00
2018-04-27T04:05:52.412Z,76.00
2018-04-27T04:06:52.412Z,88.00
2018-04-27T04:07:52.403Z,96.00
2018-04-27T04:08:52.388Z,104.00
2018-04-27T04:09:52.382Z,116.00
2018-04-27T04:10:52.378Z,128.00
2018-04-27T04:11:52.371Z,140.00
2018-04-27T04:12:52.359Z,152.00
2018-04-27T04:13:52.352Z,164.00
2018-04-27T04:14:52.345Z,176.00
2018-04-27T04:15:52.338Z,192.00
2018-04-27T04:16:52.330Z,212.00
2018-04-27T04:17:52.321Z,232.00
2018-04-27T04:18:52.314Z,252.00
2018-04-27T04:19:52.308Z,276.00
2018-04-27T04:20:52.300Z,296.00
2018-04-27T04:21:52.293Z,316.00
2018-04-27T04:22:52.284Z,344.00
2018-04-27T04:23:52.277Z,372.00
2018-04-27T04:24:52.274Z,408.00
2018-04-27T04:25:52.268Z,436.00
2018-04-27T04:26:52.255Z,472.00
2018-04-27T04:27:52.248Z,500.00
2018-04-27T04:28:52.244Z,544.00
2018-04-27T04:29:52.241Z,592.00
2018-04-27T04:30:52.225Z,648.00
2018-04-27T04:31:52.220Z,700.00
2018-04-27T04:32:52.211Z,748.00
2018-04-27T04:33:52.203Z,784.00
2018-04-27T04:34:52.196Z,836.00
2018-04-27T04:35:52.190Z,912.00
2018-04-27T04:36:52.182Z,996.00
2018-04-27T04:37:52.175Z,1108.00
2018-04-27T04:38:52.174Z,1200.00
2018-04-27T04:39:52.165Z,1300.00
2018-04-27T04:40:52.153Z,1388.00
2018-04-27T04:41:52.146Z,1496.00
2018-04-27T04:42:52.143Z,1620.00
2018-04-27T04:43:52.143Z,1872.00
2018-04-27T04:44:52.124Z,3224.00
2018-04-27T04:45:52.117Z,4376.00
2018-04-27T04:46:52.112Z,4480.00
2018-04-27T04:47:52.103Z,5248.00
2018-04-27T04:48:52.097Z,5588.00
2018-04-27T04:49:52.089Z,5848.00
2018-04-27T04:50:52.087Z,5720.00
2018-04-27T04:51:52.081Z,5468.00
2018-04-27T04:52:52.069Z,5336.00
2018-04-27T04:53:52.068Z,5616.00
2018-04-27T04:54:52.058Z,6164.00
2018-04-27T04:55:52.051Z,6664.00
2018-04-27T04:56:52.045Z,6788.00
2018-04-27T04:57:52.038Z,6200.00
2018-04-27T04:58:52.033Z,5924.00
2018-04-27T04:59:52.034Z,6540.00
2018-04-27T05:00:52.043Z,7408.00
2018-04-27T05:01:52.021Z,7716.00
2018-04-27T05:02:52.048Z,6476.00
2018-04-27T05:03:52.011Z,7152.00
2018-04-27T05:04:52.002Z,4600.00
2018-04-27T05:05:51.997Z,3312.00
2018-04-27T05:06:51.992Z,4528.00
2018-04-27T05:07:51.993Z,4544.00
2018-04-27T05:08:51.989Z,4288.00
2018-04-27T05:09:51.983Z,5976.00
2018-04-27T05:10:51.991Z,4844.00
2018-04-27T05:11:51.971Z,3948.00
2018-04-27T05:12:51.966Z,3784.00
2018-04-27T05:13:51.961Z,3712.00
2018-04-27T05:14:51.958Z,3640.00
2018-04-27T05:15:51.954Z,3604.00
2018-04-27T05:16:51.949Z,3648.00
2018-04-27T05:17:51.946Z,3804.00
2018-04-27T05:18:51.940Z,4008.00
2018-04-27T05:19:51.937Z,4256.00
2018-04-27T05:20:51.937Z,4332.00
2018-04-27T05:21:51.932Z,4544.00
2018-04-27T05:22:51.928Z,4972.00
2018-04-27T05:23:51.924Z,5388.00
2018-04-27T05:24:51.914Z,6680.00
2018-04-27T05:25:51.910Z,6232.00
2018-04-27T05:26:51.906Z,7536.00
2018-04-27T05:27:51.903Z,7660.00
2018-04-27T05:28:51.897Z,7684.00
2018-04-27T05:29:51.895Z,7328.00
2018-04-27T05:30:51.888Z,7828.00
2018-04-27T05:31:51.888Z,8204.00
2018-04-27T05:32:51.879Z,8076.00
2018-04-27T05:33:51.875Z,8800.00
2018-04-27T05:34:51.876Z,9496.00
2018-04-27T05:35:51.872Z,10048.00
2018-04-27T05:36:51.863Z,10940.00
2018-04-27T05:37:51.861Z,11532.00
2018-04-27T05:38:51.855Z,13000.00
2018-04-27T05:39:51.856Z,13492.00
2018-04-27T05:40:51.851Z,13556.00
2018-04-27T05:41:51.849Z,12464.00
2018-04-27T05:42:51.841Z,13264.00
2018-04-27T05:43:51.839Z,13676.00
2018-04-27T05:44:51.835Z,15328.00
2018-04-27T05:45:51.833Z,16224.00
2018-04-27T05:46:51.829Z,16480.00
2018-04-27T05:47:51.832Z,15968.00
2018-04-27T05:48:51.824Z,16832.00
2018-04-27T05:49:51.825Z,17184.00
2018-04-27T05:50:51.820Z,17152.00
2018-04-27T05:51:51.822Z,17568.00
2018-04-27T05:52:51.821Z,18208.00
2018-04-27T05:53:51.819Z,18464.00
2018-04-27T05:54:51.819Z,19072.00
2018-04-27T05:55:51.821Z,18784.00
2018-04-27T05:56:51.813Z,19104.00
2018-04-27T05:57:51.813Z,16640.00
2018-04-27T05:58:51.810Z,17248.00
2018-04-27T05:59:51.811Z,19744.00
2018-04-27T06:00:51.809Z,19104.00
2018-04-27T06:01:51.809Z,19552.00
2018-04-27T06:02:51.810Z,19968.00
2018-04-27T06:03:51.810Z,19360.00
2018-04-27T06:04:51.809Z,18656.00
2018-04-27T06:05:51.810Z,21152.00
2018-04-27T06:06:51.819Z,20992.00
2018-04-27T06:07:51.816Z,22624.00
2018-04-27T06:08:51.811Z,14128.00
2018-04-27T06:09:51.813Z,22592.00
2018-04-27T06:10:51.813Z,24096.00
2018-04-27T06:11:51.815Z,23648.00
2018-04-27T06:12:51.819Z,24576.00
2018-04-27T06:13:51.822Z,23808.00
2018-04-27T06:14:51.818Z,23744.00
2018-04-27T06:15:51.819Z,16896.00
2018-04-27T06:16:51.820Z,26496.00
2018-04-27T06:17:51.821Z,24768.00
2018-04-27T06:18:51.823Z,23456.00
2018-04-27T06:19:51.831Z,16640.00
2018-04-27T06:20:51.826Z,22752.00
2018-04-27T06:21:51.829Z,27552.00
2018-04-27T06:22:51.830Z,28256.00
2018-04-27T06:23:51.907Z,16960.00
2018-04-27T06:24:51.839Z,22848.00
2018-04-27T06:25:51.842Z,28384.00
2018-04-27T06:26:51.844Z,28160.00
2018-04-27T06:27:51.847Z,28512.00
2018-04-27T06:28:51.846Z,27712.00
2018-04-27T06:29:51.848Z,27136.00
2018-04-27T06:30:51.851Z,26688.00
2018-04-27T06:31:51.921Z,26976.00
2018-04-27T06:32:51.858Z,19968.00
2018-04-27T06:33:51.862Z,17664.00
2018-04-27T06:34:51.867Z,26112.00
2018-04-27T06:35:51.870Z,28128.00
2018-04-27T06:36:51.873Z,29568.00
2018-04-27T06:37:51.877Z,29408.00
2018-04-27T06:38:51.887Z,20160.00
2018-04-27T06:39:51.892Z,21696.00
2018-04-27T06:40:51.889Z,20576.00
2018-04-27T06:41:51.894Z,27008.00
2018-04-27T06:42:51.898Z,29152.00
2018-04-27T06:43:51.909Z,30624.00
2018-04-27T06:44:51.912Z,29600.00
2018-04-27T06:45:51.917Z,28960.00
2018-04-27T06:46:51.917Z,27488.00
2018-04-27T06:47:51.923Z,29696.00
2018-04-27T06:48:51.927Z,24544.00
2018-04-27T06:49:51.932Z,30720.00
2018-04-27T06:50:51.937Z,31072.00
2018-04-27T06:51:51.943Z,25664.00
2018-04-27T06:52:51.951Z,26720.00
2018-04-27T06:53:51.953Z,26272.00
2018-04-27T06:54:51.959Z,24736.00
2018-04-27T06:55:51.965Z,27008.00
2018-04-27T06:56:51.973Z,24800.00
2018-04-27T06:57:51.980Z,24896.00
2018-04-27T06:58:51.981Z,26592.00
2018-04-27T06:59:51.987Z,25696.00
2018-04-27T07:00:51.991Z,25888.00
2018-04-27T07:01:52.001Z,25184.00
2018-04-27T07:02:52.003Z,27712.00
2018-04-27T07:03:52.009Z,28256.00
2018-04-27T07:04:52.017Z,27840.00
2018-04-27T07:05:52.023Z,28352.00
2018-04-27T07:06:52.023Z,27328.00
2018-04-27T07:07:52.029Z,27968.00
2018-04-27T07:08:52.038Z,26048.00
2018-04-27T07:09:52.044Z,25600.00
2018-04-27T07:10:52.045Z,24352.00
2018-04-27T07:11:52.051Z,23680.00
2018-04-27T07:12:52.057Z,26752.00
2018-04-27T07:13:52.062Z,28000.00
2018-04-27T07:14:52.069Z,27072.00
2018-04-27T07:15:52.074Z,23008.00
2018-04-27T07:16:52.154Z,23552.00
2018-04-27T07:17:52.083Z,20128.00
2018-04-27T07:18:52.093Z,22368.00
2018-04-27T07:19:52.099Z,22336.00
2018-04-27T07:20:52.099Z,21184.00
2018-04-27T07:21:52.104Z,22944.00
2018-04-27T07:22:52.115Z,24768.00
2018-04-27T07:23:52.120Z,23616.00
2018-04-27T07:24:52.120Z,26880.00
2018-04-27T07:25:52.223Z,24160.00
2018-04-27T07:26:52.130Z,27360.00
2018-04-27T07:27:52.135Z,30208.00
2018-04-27T07:28:52.140Z,31168.00
2018-04-27T07:29:52.173Z,26912.00
2018-04-27T07:30:52.150Z,29696.00
2018-04-27T07:31:52.155Z,34336.00
2018-04-27T07:32:52.162Z,38752.00
2018-04-27T07:33:52.166Z,40672.00
2018-04-27T07:34:52.169Z,37184.00
2018-04-27T07:35:52.179Z,34592.00
2018-04-27T07:36:52.184Z,35424.00
2018-04-27T07:37:52.190Z,28000.00
2018-04-27T07:38:52.189Z,28800.00
2018-04-27T07:39:52.194Z,21728.00
2018-04-27T07:40:52.208Z,22848.00
2018-04-27T07:41:52.207Z,25120.00
2018-04-27T07:42:52.212Z,25312.00
2018-04-27T07:43:52.214Z,24640.00
2018-04-27T07:44:52.218Z,22592.00
2018-04-27T07:45:52.222Z,22336.00
2018-04-27T07:46:52.227Z,21856.00
2018-04-27T07:47:52.232Z,19680.00
2018-04-27T07:48:52.235Z,19776.00
2018-04-27T07:49:52.241Z,20800.00
2018-04-27T07:50:52.249Z,21536.00
2018-04-27T07:51:52.254Z,21728.00
2018-04-27T07:52:52.252Z,19712.00
2018-04-27T07:53:52.256Z,19264.00
2018-04-27T07:54:52.268Z,20768.00
2018-04-27T07:55:52.270Z,26784.00
2018-04-27T07:56:52.268Z,32576.00
2018-04-27T07:57:52.276Z,36768.00
2018-04-27T07:58:52.277Z,35840.00
2018-04-27T07:59:52.282Z,38368.00
2018-04-27T08:00:52.287Z,28416.00
2018-04-27T08:01:52.288Z,41504.00
2018-04-27T08:02:52.295Z,38688.00
2018-04-27T08:03:52.299Z,43552.00
2018-04-27T08:04:52.297Z,42368.00
2018-04-27T08:05:52.303Z,42656.00
2018-04-27T08:06:52.308Z,43552.00
2018-04-27T08:07:52.312Z,51264.00
2018-04-27T08:08:52.379Z,41312.00
2018-04-27T08:09:52.319Z,36960.00
2018-04-27T08:10:52.325Z,40448.00
2018-04-27T08:11:52.340Z,31520.00
2018-04-27T08:12:52.335Z,34560.00
2018-04-27T08:13:52.340Z,37568.00
2018-04-27T08:14:52.351Z,46176.00
2018-04-27T08:15:52.355Z,39488.00
2018-04-27T08:16:52.356Z,37664.00
2018-04-27T08:17:52.363Z,45696.00
2018-04-27T08:18:52.370Z,40832.00
2018-04-27T08:19:52.374Z,35328.00
2018-04-27T08:20:52.386Z,38880.00
2018-04-27T08:21:52.391Z,44416.00
2018-04-27T08:22:52.394Z,45952.00
2018-04-27T08:23:52.401Z,52128.00
2018-04-27T08:24:52.408Z,43456.00
2018-04-27T08:25:52.416Z,39616.00
2018-04-27T08:26:52.476Z,33472.00
2018-04-27T08:27:52.431Z,37888.00
2018-04-27T08:28:52.438Z,29216.00
2018-04-27T08:29:52.449Z,31424.00
2018-04-27T08:30:52.454Z,39424.00
2018-04-27T08:31:52.462Z,30368.00
2018-04-27T08:32:52.476Z,35200.00
2018-04-27T08:33:52.482Z,30688.00
2018-04-27T08:34:52.491Z,31392.00
2018-04-27T08:35:52.499Z,43200.00
2018-04-27T08:36:52.503Z,32544.00
2018-04-27T08:37:52.511Z,29792.00
2018-04-27T08:38:52.524Z,41120.00
2018-04-27T08:39:52.529Z,40192.00
2018-04-27T08:40:52.537Z,33504.00
2018-04-27T08:41:52.545Z,31264.00
2018-04-27T08:42:52.554Z,32224.00
2018-04-27T08:43:52.622Z,34144.00
2018-04-27T08:44:52.571Z,32960.00
2018-04-27T08:45:52.579Z,33216.00
2018-04-27T08:46:52.593Z,31360.00
2018-04-27T08:47:52.603Z,28288.00
2018-04-27T08:48:52.605Z,25728.00
2018-04-27T08:49:52.615Z,28992.00
2018-04-27T08:50:52.625Z,29888.00
2018-04-27T08:51:52.633Z,28256.00
2018-04-27T08:52:52.645Z,31072.00
2018-04-27T08:53:52.653Z,30752.00
2018-04-27T08:54:52.659Z,31808.00
2018-04-27T08:55:52.667Z,31936.00
2018-04-27T08:56:52.674Z,29888.00
2018-04-27T08:57:52.682Z,29344.00
2018-04-27T08:58:52.690Z,28192.00
2018-04-27T08:59:52.699Z,26016.00
2018-04-27T09:00:52.707Z,23008.00
2018-04-27T09:01:52.719Z,23424.00
2018-04-27T09:02:52.723Z,26400.00
2018-04-27T09:03:52.734Z,27040.00
2018-04-27T09:04:52.743Z,26304.00
2018-04-27T09:05:52.751Z,27744.00
2018-04-27T09:06:52.756Z,27552.00
2018-04-27T09:07:52.763Z,29568.00
2018-04-27T09:08:52.771Z,30240.00
2018-04-27T09:09:52.778Z,31040.00
2018-04-27T09:10:52.785Z,26592.00
2018-04-27T09:11:52.793Z,27904.00
2018-04-27T09:12:52.804Z,27424.00
2018-04-27T09:13:52.812Z,29376.00
2018-04-27T09:14:52.813Z,26272.00
2018-04-27T09:15:52.823Z,27424.00
2018-04-27T09:16:52.833Z,26784.00
2018-04-27T09:17:52.841Z,29472.00
2018-04-27T09:18:52.841Z,28224.00
2018-04-27T09:19:52.849Z,24640.00
2018-04-27T09:20:52.856Z,29440.00
2018-04-27T09:21:52.862Z,28192.00
2018-04-27T09:22:52.869Z,28864.00
2018-04-27T09:23:52.877Z,31712.00
2018-04-27T09:24:52.881Z,28096.00
2018-04-27T09:25:52.889Z,24896.00
2018-04-27T09:26:52.942Z,26720.00
2018-04-27T09:27:52.907Z,25728.00
2018-04-27T09:28:52.909Z,28096.00
2018-04-27T09:29:52.916Z,31040.00
2018-04-27T09:30:52.927Z,26528.00
2018-04-27T09:31:52.934Z,25888.00
2018-04-27T09:32:52.936Z,23712.00
2018-04-27T09:33:52.944Z,22688.00
2018-04-27T09:34:52.950Z,22400.00
2018-04-27T09:35:52.957Z,27904.00
2018-04-27T09:36:52.963Z,30240.00
2018-04-27T09:37:52.970Z,29664.00
2018-04-27T09:38:52.977Z,31360.00
2018-04-27T09:39:52.984Z,31456.00
2018-04-27T09:40:52.990Z,28576.00
2018-04-27T09:41:52.997Z,25408.00
2018-04-27T09:42:53.004Z,28064.00
2018-04-27T09:43:53.011Z,25440.00
2018-04-27T09:44:53.020Z,25600.00
2018-04-27T09:45:53.028Z,27072.00
2018-04-27T09:46:53.031Z,25536.00
2018-04-27T09:47:53.040Z,24768.00
2018-04-27T09:48:53.048Z,26496.00
2018-04-27T09:49:53.055Z,26848.00
2018-04-27T09:50:53.057Z,30880.00
2018-04-27T09:51:53.063Z,31680.00
2018-04-27T09:52:53.070Z,46112.00
2018-04-27T09:53:53.076Z,46752.00
2018-04-27T09:54:53.083Z,43968.00
2018-04-27T09:55:53.090Z,37856.00
2018-04-27T09:56:53.096Z,35232.00
2018-04-27T09:57:53.102Z,46656.00
2018-04-27T09:58:53.112Z,43008.00
2018-04-27T09:59:53.119Z,47168.00
2018-04-27T10:00:53.120Z,39040.00
2018-04-27T10:01:53.128Z,31360.00
2018-04-27T10:02:53.139Z,30080.00
2018-04-27T10:03:53.154Z,38400.00
2018-04-27T10:04:53.152Z,40096.00
2018-04-27T10:05:53.159Z,45344.00
2018-04-27T10:06:53.162Z,38048.00
2018-04-27T10:07:53.169Z,35680.00
2018-04-27T10:08:53.176Z,34912.00
2018-04-27T10:09:53.184Z,32672.00
2018-04-27T10:10:53.196Z,32704.00
2018-04-27T10:11:53.202Z,36640.00
2018-04-27T10:12:53.209Z,34816.00
2018-04-27T10:13:53.218Z,35680.00
2018-04-27T10:14:53.220Z,33760.00
2018-04-27T10:15:53.227Z,35200.00
2018-04-27T10:16:53.238Z,36192.00
2018-04-27T10:17:53.241Z,36096.00
2018-04-27T10:18:53.248Z,32960.00
2018-04-27T10:19:53.256Z,27616.00
2018-04-27T10:20:53.263Z,33696.00
2018-04-27T10:21:53.271Z,49248.00
2018-04-27T10:22:53.281Z,45024.00
2018-04-27T10:23:53.286Z,35872.00
2018-04-27T10:24:53.297Z,46304.00
2018-04-27T10:25:53.304Z,43424.00
2018-04-27T10:26:53.312Z,39648.00
2018-04-27T10:27:53.320Z,37120.00
2018-04-27T10:28:53.322Z,37728.00
2018-04-27T10:29:53.331Z,33024.00
2018-04-27T10:30:53.347Z,38112.00
2018-04-27T10:31:53.348Z,36800.00
2018-04-27T10:32:53.354Z,30368.00
2018-04-27T10:33:53.361Z,33312.00
2018-04-27T10:34:53.369Z,33408.00
2018-04-27T10:35:53.376Z,33984.00
2018-04-27T10:36:53.382Z,30720.00
2018-04-27T10:37:53.390Z,32800.00
2018-04-27T10:38:53.401Z,26720.00
2018-04-27T10:39:53.408Z,24224.00
2018-04-27T10:40:53.412Z,26272.00
2018-04-27T10:41:53.419Z,29408.00
2018-04-27T10:42:53.426Z,27392.00
2018-04-27T10:43:53.435Z,30080.00
2018-04-27T10:44:53.444Z,29248.00
2018-04-27T10:45:53.454Z,32448.00
2018-04-27T10:46:53.454Z,40256.00
2018-04-27T10:47:53.462Z,43168.00
2018-04-27T10:48:53.468Z,30528.00
2018-04-27T10:49:53.478Z,34272.00
2018-04-27T10:50:53.487Z,32864.00
2018-04-27T10:51:53.491Z,30816.00
2018-04-27T10:52:53.498Z,32256.00
2018-04-27T10:53:53.504Z,30688.00
2018-04-27T10:54:53.511Z,26208.00
2018-04-27T10:55:53.521Z,25120.00
2018-04-27T10:56:53.530Z,24192.00
2018-04-27T10:57:53.536Z,24512.00
2018-04-27T10:58:53.543Z,24704.00
2018-04-27T10:59:53.550Z,27232.00
2018-04-27T11:00:53.553Z,29280.00
2018-04-27T11:01:53.560Z,27264.00
2018-04-27T11:02:53.568Z,26080.00
2018-04-27T11:03:53.574Z,30176.00
2018-04-27T11:04:53.581Z,29824.00
2018-04-27T11:05:53.587Z,26336.00
2018-04-27T11:06:53.595Z,31776.00
2018-04-27T11:07:53.601Z,42208.00
2018-04-27T11:08:53.608Z,42816.00
2018-04-27T11:09:53.615Z,31008.00
2018-04-27T11:10:53.706Z,33024.00
2018-04-27T11:11:53.632Z,31296.00
2018-04-27T11:12:53.634Z,28704.00
2018-04-27T11:13:53.643Z,25472.00
2018-04-27T11:14:53.648Z,27328.00
2018-04-27T11:15:53.655Z,23904.00
2018-04-27T11:16:54.082Z,24864.00
2018-04-27T11:17:53.668Z,34112.00
2018-04-27T11:18:53.678Z,23232.00
2018-04-27T11:19:53.685Z,23392.00
2018-04-27T11:20:53.686Z,27616.00
2018-04-27T11:21:53.693Z,27264.00
2018-04-27T11:22:53.704Z,24096.00
2018-04-27T11:23:53.710Z,21408.00
2018-04-27T11:24:53.712Z,20448.00
2018-04-27T11:25:53.717Z,18944.00
2018-04-27T11:26:53.724Z,17824.00
2018-04-27T11:27:53.731Z,16576.00
2018-04-27T11:28:53.736Z,16064.00
2018-04-27T11:29:53.742Z,14940.00
2018-04-27T11:30:53.749Z,14532.00
2018-04-27T11:31:53.755Z,14240.00
2018-04-27T11:32:53.761Z,13428.00
2018-04-27T11:33:53.766Z,14764.00
2018-04-27T11:34:53.780Z,14656.00
2018-04-27T11:35:53.784Z,13740.00
2018-04-27T11:36:53.787Z,12500.00
2018-04-27T11:37:53.794Z,12760.00
2018-04-27T11:38:53.795Z,11448.00
2018-04-27T11:39:53.801Z,12628.00
2018-04-27T11:40:53.811Z,13896.00
2018-04-27T11:41:53.815Z,13328.00
2018-04-27T11:42:53.817Z,13428.00
2018-04-27T11:43:53.822Z,14040.00
2018-04-27T11:44:53.826Z,14684.00
2018-04-27T11:45:53.831Z,14996.00
2018-04-27T11:46:53.838Z,16672.00
2018-04-27T11:47:53.841Z,16480.00
2018-04-27T11:48:53.845Z,15776.00
2018-04-27T11:49:53.858Z,15352.00
2018-04-27T11:50:53.860Z,14832.00
2018-04-27T11:51:53.864Z,14744.00
2018-04-27T11:52:53.863Z,14692.00
2018-04-27T11:53:53.868Z,14408.00
2018-04-27T11:54:53.877Z,14896.00
2018-04-27T11:55:53.882Z,15328.00
2018-04-27T11:56:53.881Z,16224.00
2018-04-27T11:57:53.887Z,16480.00
2018-04-27T11:58:53.890Z,16736.00
2018-04-27T11:59:53.895Z,16896.00
2018-04-27T12:00:53.898Z,17344.00
2018-04-27T12:01:53.903Z,16864.00
2018-04-27T12:02:53.908Z,16192.00
2018-04-27T12:03:53.912Z,15500.00
2018-04-27T12:04:53.915Z,15408.00
2018-04-27T12:05:53.920Z,15840.00
2018-04-27T12:06:53.923Z,16320.00
2018-04-27T12:07:53.928Z,16320.00
2018-04-27T12:08:53.935Z,16032.00
2018-04-27T12:09:53.939Z,16288.00
2018-04-27T12:10:53.939Z,16576.00
2018-04-27T12:11:53.944Z,16640.00
2018-04-27T12:12:53.951Z,16384.00
2018-04-27T12:13:53.955Z,16000.00
2018-04-27T12:14:53.955Z,15396.00
2018-04-27T12:15:53.959Z,14368.00
2018-04-27T12:16:53.962Z,14260.00